CheckWX is a tool to help pilots better visualize weather data.  It is not intended as a substitute for an official pre-flight weather briefing.

12:18:48 UTC

KPNC METAR
Ponca City Regional Airport
Ponca City, Oklahoma, USA
Current

26 mins ago

KPNC 181153Z AUTO 32004KT 10SM CLR M08/M12 A3041 RMK AO2 SLP306 T10781122 11061 21094 53024
Observed
Feb-18 @ 11:53 UTC
Wind
  • 320° at 4 KTS
Visibility
10 SM
Flight Rules
VFR
Cloud Levels
  • Clear skies
Temperature
-8°C / 18°F
Dewpoint
-12°C / 10°F
Humidity
73%
Altimeter
30.41" Hg
Pressure
1030.6 hPa
Previous

1 hour ago

KPNC 181053Z AUTO 35005KT 10SM CLR M08/M12 A3036 RMK AO2 SLP288 T10831117
Observed
Feb-18 @ 10:53 UTC
Wind
  • 350° at 5 KTS
Visibility
10 SM
Flight Rules
VFR
Cloud Levels
  • Clear skies
Temperature
-8°C / 18°F
Dewpoint
-12°C / 10°F
Humidity
73%
Altimeter
30.36" Hg
Pressure
1028.8 hPa
Previous

2 hours ago

KPNC 180953Z AUTO 36006KT 10SM CLR M09/M12 A3033 RMK AO2 SLP279 T10891122
Observed
Feb-18 @ 09:53 UTC
Wind
  • 360° at 6 KTS
Visibility
10 SM
Flight Rules
VFR
Cloud Levels
  • Clear skies
Temperature
-9°C / 16°F
Dewpoint
-12°C / 10°F
Humidity
79%
Altimeter
30.33" Hg
Pressure
1027.9 hPa